createdAt,value
2019-02-07T00:00:01.218Z,4.57
2019-02-07T00:02:05.774Z,4.33
2019-02-07T00:04:10.381Z,4.37
2019-02-07T00:06:14.861Z,4.97
2019-02-07T00:08:19.329Z,4.70
2019-02-07T00:10:23.728Z,2.73
2019-02-07T00:12:28.163Z,4.73
2019-02-07T00:14:39.476Z,3.90
2019-02-07T00:16:36.912Z,4.30
2019-02-07T00:18:41.365Z,4.47
2019-02-07T00:20:45.900Z,3.63
2019-02-07T00:22:50.262Z,3.73
2019-02-07T00:24:54.651Z,4.20
2019-02-07T00:26:59.038Z,4.57
2019-02-07T00:29:03.451Z,4.63
2019-02-07T00:31:07.846Z,4.40
2019-02-07T00:33:12.291Z,4.00
2019-02-07T00:35:16.780Z,4.47
2019-02-07T00:37:21.231Z,4.43
2019-02-07T00:39:25.594Z,4.40
2019-02-07T00:41:29.961Z,4.77
2019-02-07T00:43:34.377Z,3.97
2019-02-07T00:45:38.944Z,4.27
2019-02-07T00:47:43.402Z,4.60
2019-02-07T00:49:47.761Z,4.33
2019-02-07T00:51:52.189Z,4.53
2019-02-07T00:53:56.575Z,4.00
2019-02-07T00:56:00.951Z,4.20
2019-02-07T00:58:05.378Z,3.57
2019-02-07T01:00:15.754Z,4.03
2019-02-07T01:02:20.205Z,4.10
2019-02-07T01:04:24.816Z,3.90
2019-02-07T01:06:29.362Z,4.33
2019-02-07T01:08:33.771Z,3.90
2019-02-07T01:10:38.174Z,4.30
2019-02-07T01:12:42.649Z,4.33
2019-02-07T01:14:47.007Z,4.63
2019-02-07T01:16:51.409Z,4.33
2019-02-07T01:18:55.910Z,5.07
2019-02-07T01:21:00.242Z,3.90
2019-02-07T01:23:04.747Z,4.13
2019-02-07T01:25:11.098Z,4.33
2019-02-07T01:27:15.551Z,4.33
2019-02-07T01:29:20.051Z,4.10
2019-02-07T01:31:24.494Z,2.97
2019-02-07T01:33:28.926Z,4.47
2019-02-07T01:35:34.825Z,3.90
2019-02-07T01:37:40.559Z,3.70
2019-02-07T01:39:45.133Z,4.13
2019-02-07T01:41:49.549Z,4.27
2019-02-07T01:43:53.918Z,3.33
2019-02-07T01:45:58.286Z,4.33
2019-02-07T01:48:02.678Z,3.60
2019-02-07T01:50:08.819Z,4.40
2019-02-07T01:52:13.205Z,3.33
2019-02-07T01:54:17.690Z,4.03
2019-02-07T01:56:22.119Z,3.33
2019-02-07T01:58:26.537Z,4.00
2019-02-07T02:00:30.998Z,4.20
2019-02-07T02:02:35.357Z,4.10
2019-02-07T02:04:39.730Z,4.07
2019-02-07T02:06:44.122Z,2.80
2019-02-07T02:08:48.587Z,3.90
2019-02-07T02:10:52.948Z,3.93
2019-02-07T02:12:57.444Z,4.23
2019-02-07T02:15:01.807Z,3.23
2019-02-07T02:17:06.278Z,3.53
2019-02-07T02:19:10.625Z,3.17
2019-02-07T02:21:15.087Z,3.63
2019-02-07T02:23:19.459Z,3.70
2019-02-07T02:25:23.924Z,4.30
2019-02-07T02:27:28.441Z,4.57
2019-02-07T02:29:32.770Z,4.20
2019-02-07T02:31:37.149Z,4.53
2019-02-07T02:33:41.529Z,3.60
2019-02-07T02:35:45.914Z,4.27
2019-02-07T02:37:50.387Z,3.90
2019-02-07T02:39:54.767Z,2.77
2019-02-07T02:41:59.195Z,4.47
2019-02-07T02:44:03.641Z,4.27
2019-02-07T02:46:08.102Z,3.57
2019-02-07T02:48:12.488Z,4.63
2019-02-07T02:50:17.740Z,4.10
2019-02-07T02:52:22.134Z,4.20
2019-02-07T02:54:33.066Z,4.97
2019-02-07T02:56:37.445Z,4.57
2019-02-07T02:58:41.819Z,5.93
2019-02-07T03:00:51.534Z,4.73
2019-02-07T03:03:01.094Z,4.03
2019-02-07T03:05:14.869Z,4.87
2019-02-07T03:07:27.009Z,4.60
2019-02-07T03:10:06.956Z,4.77
2019-02-07T03:12:17.308Z,4.47
2019-02-07T03:14:26.790Z,4.10
2019-02-07T03:16:36.066Z,4.30
2019-02-07T03:18:45.605Z,4.60
2019-02-07T03:21:10.187Z,3.03
2019-02-07T03:23:19.778Z,4.43
2019-02-07T03:25:30.175Z,3.93
2019-02-07T03:27:48.647Z,4.10
2019-02-07T03:31:02.820Z,4.43
2019-02-07T03:34:10.124Z,5.10
2019-02-07T03:36:24.811Z,4.50
2019-02-07T03:38:34.269Z,4.73
2019-02-07T03:41:44.503Z,4.50
2019-02-07T03:43:53.011Z,5.00
2019-02-07T03:46:04.521Z,4.60
2019-02-07T03:50:20.089Z,4.80
2019-02-07T03:53:33.210Z,4.13
2019-02-07T03:55:41.759Z,4.53
2019-02-07T03:58:05.252Z,4.77
2019-02-07T04:00:15.735Z,4.67
2019-02-07T04:02:25.600Z,4.53
2019-02-07T04:04:41.089Z,4.47
2019-02-07T04:06:52.398Z,5.43
2019-02-07T04:09:01.807Z,4.70
2019-02-07T04:12:15.857Z,3.90
2019-02-07T04:14:28.404Z,3.10
2019-02-07T04:16:43.879Z,4.20
2019-02-07T04:18:53.478Z,4.70
2019-02-07T04:21:03.169Z,3.90
2019-02-07T04:23:13.586Z,3.73
2019-02-07T04:26:21.660Z,5.33
2019-02-07T04:29:31.595Z,4.17
2019-02-07T04:31:41.199Z,4.70
2019-02-07T04:34:22.004Z,4.03
2019-02-07T04:37:29.628Z,3.83
2019-02-07T04:40:41.116Z,4.47
2019-02-07T04:43:01.914Z,2.83
2019-02-07T04:45:10.940Z,3.90
2019-02-07T04:47:25.449Z,4.10
2019-02-07T04:49:34.901Z,3.27
2019-02-07T04:52:42.875Z,4.70
2019-02-07T04:54:57.410Z,4.00
2019-02-07T04:57:09.957Z,3.53
2019-02-07T04:59:27.518Z,3.67
2019-02-07T05:02:42.736Z,3.20
2019-02-07T05:04:58.321Z,3.83
2019-02-07T05:07:10.751Z,3.80
2019-02-07T05:09:50.710Z,3.87
2019-02-07T05:12:01.224Z,4.00
2019-02-07T05:14:10.882Z,4.33
2019-02-07T05:17:27.133Z,4.13
2019-02-07T05:20:09.068Z,4.07
2019-02-07T05:22:20.509Z,3.70
2019-02-07T05:24:38.360Z,3.60
2019-02-07T05:26:48.752Z,3.10
2019-02-07T05:29:28.587Z,3.33
2019-02-07T05:32:13.287Z,4.40
2019-02-07T05:34:22.803Z,3.00
2019-02-07T05:38:35.064Z,3.50
2019-02-07T05:40:43.591Z,3.23
2019-02-07T05:42:53.005Z,3.57
2019-02-07T05:45:08.395Z,3.27
2019-02-07T05:47:17.905Z,3.10
2019-02-07T05:49:28.486Z,3.80
2019-02-07T05:51:37.820Z,3.37
2019-02-07T05:53:48.433Z,3.93
2019-02-07T05:57:01.689Z,4.47
2019-02-07T05:59:11.198Z,4.10
2019-02-07T06:02:18.185Z,3.90
2019-02-07T06:04:26.721Z,4.33
2019-02-07T06:07:35.964Z,4.30
2019-02-07T06:11:51.048Z,3.13
2019-02-07T06:14:17.727Z,4.27
2019-02-07T06:18:32.223Z,3.67
2019-02-07T06:20:41.795Z,3.57
2019-02-07T06:23:50.966Z,3.37
2019-02-07T06:26:09.343Z,4.03
2019-02-07T06:28:22.875Z,4.17
2019-02-07T06:30:32.604Z,4.27
2019-02-07T06:32:58.330Z,3.57
2019-02-07T06:35:07.925Z,4.20
2019-02-07T06:37:32.453Z,4.20
2019-02-07T06:39:59.936Z,4.80
2019-02-07T06:42:41.943Z,5.77
2019-02-07T06:45:07.605Z,5.60
2019-02-07T06:47:31.236Z,5.60
2019-02-07T06:49:48.873Z,5.73
2019-02-07T06:51:58.319Z,4.97
2019-02-07T06:56:11.386Z,4.30
2019-02-07T06:58:24.050Z,5.87
2019-02-07T07:02:36.491Z,5.30
2019-02-07T07:04:46.087Z,5.37
2019-02-07T07:06:59.649Z,5.77
2019-02-07T07:10:12.443Z,5.30
2019-02-07T07:12:36.182Z,4.90
2019-02-07T07:14:47.661Z,6.13
2019-02-07T07:17:07.294Z,6.10
2019-02-07T07:20:15.411Z,4.90
2019-02-07T07:22:24.998Z,3.13
2019-02-07T07:26:42.242Z,6.07
2019-02-07T07:28:51.753Z,3.93
2019-02-07T07:31:01.358Z,6.33
2019-02-07T07:33:11.084Z,3.90
2019-02-07T07:35:25.562Z,5.50
2019-02-07T07:37:34.114Z,3.97
2019-02-07T07:39:43.831Z,4.00
2019-02-07T07:41:54.338Z,3.70
2019-02-07T07:44:03.751Z,5.43
2019-02-07T07:46:24.365Z,5.77
2019-02-07T07:48:37.675Z,4.87
2019-02-07T07:50:47.451Z,5.53
2019-02-07T07:53:11.942Z,5.10
2019-02-07T07:56:19.138Z,4.97
2019-02-07T07:58:29.489Z,3.73
2019-02-07T08:01:38.846Z,2.83
2019-02-07T08:03:57.386Z,3.73
2019-02-07T08:06:40.180Z,4.97
2019-02-07T08:09:52.580Z,3.77
2019-02-07T08:12:02.057Z,5.13
2019-02-07T08:14:25.788Z,5.80
2019-02-07T08:18:37.862Z,5.83
2019-02-07T08:20:50.211Z,3.57
2019-02-07T08:23:30.951Z,5.80
2019-02-07T08:25:40.660Z,6.17
2019-02-07T08:27:54.124Z,5.40
2019-02-07T08:32:06.079Z,5.13
2019-02-07T08:34:15.714Z,6.27
2019-02-07T08:36:25.865Z,5.90
2019-02-07T08:38:34.422Z,5.67
2019-02-07T08:40:49.022Z,4.90
2019-02-07T08:45:05.982Z,3.80
2019-02-07T08:47:15.322Z,4.27
2019-02-07T08:49:24.830Z,4.13
2019-02-07T08:51:34.442Z,5.23
2019-02-07T08:53:43.869Z,5.60
2019-02-07T08:55:52.435Z,5.73
2019-02-07T08:58:02.282Z,2.50
2019-02-07T09:00:21.136Z,3.20
2019-02-07T09:03:00.802Z,6.50
2019-02-07T09:18:11.333Z,6.57
2019-02-07T09:20:20.399Z,6.60
2019-02-07T09:23:36.293Z,3.97
2019-02-07T09:25:52.910Z,3.67
2019-02-07T09:28:10.460Z,6.43
2019-02-07T09:30:21.854Z,4.20
2019-02-07T09:33:40.303Z,3.90
2019-02-07T09:35:52.774Z,5.03
2019-02-07T09:38:02.463Z,5.67
2019-02-07T09:41:12.507Z,3.73
2019-02-07T09:43:22.046Z,5.07
2019-02-07T09:45:31.749Z,3.87
2019-02-07T09:47:46.167Z,4.10
2019-02-07T09:50:56.528Z,4.10
2019-02-07T09:54:04.765Z,4.80
2019-02-07T09:56:15.233Z,3.27
2019-02-07T09:58:28.663Z,4.73
2019-02-07T10:00:40.094Z,5.37
2019-02-07T10:02:49.628Z,3.07
2019-02-07T10:05:14.116Z,5.47
2019-02-07T10:07:28.542Z,5.30
2019-02-07T10:09:38.090Z,5.87
2019-02-07T10:11:54.987Z,2.40
2019-02-07T10:15:05.234Z,4.50
2019-02-07T10:17:14.925Z,5.23
2019-02-07T10:19:24.616Z,4.93
2019-02-07T10:21:35.008Z,3.40
2019-02-07T10:23:45.543Z,3.73
2019-02-07T10:28:01.652Z,2.83
2019-02-07T10:32:17.637Z,3.53
2019-02-07T10:34:30.091Z,2.70
2019-02-07T10:36:40.578Z,3.27
2019-02-07T10:38:57.005Z,3.37
2019-02-07T10:41:08.526Z,4.53
2019-02-07T10:43:17.482Z,2.67
2019-02-07T10:47:30.561Z,2.90
2019-02-07T10:50:13.052Z,3.97
2019-02-07T10:52:22.671Z,6.57
2019-02-07T10:56:36.565Z,2.90
2019-02-07T10:59:52.154Z,4.13
2019-02-07T11:02:01.691Z,5.20
2019-02-07T11:04:11.362Z,3.57
2019-02-07T11:07:18.491Z,9.80
2019-02-07T11:11:32.590Z,3.47
2019-02-07T11:13:44.955Z,5.17
2019-02-07T11:15:54.918Z,5.50
2019-02-07T11:18:04.491Z,5.97
2019-02-07T11:20:18.286Z,3.80
2019-02-07T11:22:27.954Z,1.57
2019-02-07T11:25:38.103Z,2.37
2019-02-07T11:27:48.484Z,2.57
2019-02-07T11:29:58.018Z,1.93
2019-02-07T11:32:07.717Z,2.10
2019-02-07T11:34:19.285Z,2.23
2019-02-07T11:36:53.542Z,1.53
2019-02-07T11:38:52.306Z,2.10
2019-02-07T11:41:01.833Z,2.10
2019-02-07T11:43:10.635Z,2.90
2019-02-07T11:45:22.386Z,3.93
2019-02-07T11:47:39.909Z,2.23
2019-02-07T11:49:52.419Z,2.43
2019-02-07T11:52:04.819Z,3.60
2019-02-07T11:54:20.325Z,1.97
2019-02-07T11:56:30.937Z,2.80
2019-02-07T11:58:40.509Z,3.03
2019-02-07T12:01:06.493Z,2.47
2019-02-07T12:03:18.797Z,2.57
2019-02-07T12:05:28.336Z,2.80
2019-02-07T12:07:44.832Z,1.50
2019-02-07T12:10:29.509Z,2.07
2019-02-07T12:12:52.837Z,1.50
2019-02-07T12:15:07.329Z,1.73
2019-02-07T12:17:18.815Z,2.03
2019-02-07T12:20:26.786Z,2.57
2019-02-07T12:24:40.266Z,2.10
2019-02-07T12:27:03.738Z,0.60
2019-02-07T12:29:14.035Z,2.23
2019-02-07T12:31:28.743Z,2.40
2019-02-07T12:34:40.893Z,1.97
2019-02-07T12:36:51.224Z,0.87
2019-02-07T12:41:06.915Z,1.30
2019-02-07T12:43:16.558Z,2.33
2019-02-07T12:45:28.011Z,2.13
2019-02-07T12:47:43.430Z,1.37
2019-02-07T12:49:53.170Z,2.07
2019-02-07T12:52:01.698Z,2.10
2019-02-07T12:55:16.582Z,1.30
2019-02-07T12:57:29.921Z,2.27
2019-02-07T12:59:39.462Z,2.17
2019-02-07T13:03:53.011Z,2.30
2019-02-07T13:06:02.439Z,1.47
2019-02-07T13:08:21.215Z,2.10
2019-02-07T13:12:34.720Z,1.57
2019-02-07T13:15:45.745Z,1.03
2019-02-07T13:17:55.566Z,2.50
2019-02-07T13:22:11.080Z,1.87
2019-02-07T13:24:27.226Z,1.97
2019-02-07T13:26:36.587Z,1.37
2019-02-07T13:29:01.310Z,1.50
2019-02-07T13:31:12.809Z,2.73
2019-02-07T13:33:22.553Z,1.30
2019-02-07T13:35:33.922Z,1.77
2019-02-07T13:37:43.437Z,1.80
2019-02-07T13:39:52.886Z,1.03
2019-02-07T13:42:02.538Z,2.50
2019-02-07T13:46:18.373Z,2.27
2019-02-07T13:50:32.622Z,1.00
2019-02-07T13:54:44.116Z,1.93
2019-02-07T13:57:09.627Z,2.30
2019-02-07T14:00:17.558Z,1.57
2019-02-07T14:02:27.196Z,2.07
2019-02-07T14:04:38.563Z,1.63
2019-02-07T14:08:51.977Z,1.17
2019-02-07T14:13:08.601Z,1.33
2019-02-07T14:15:18.373Z,2.70
2019-02-07T14:17:30.782Z,1.97
2019-02-07T14:20:03.792Z,1.43
2019-02-07T14:22:07.941Z,1.90
2019-02-07T14:24:23.931Z,1.47
2019-02-07T14:26:33.878Z,1.70
2019-02-07T14:28:50.761Z,1.47
2019-02-07T14:31:06.408Z,1.87
2019-02-07T14:33:15.517Z,2.50
2019-02-07T14:35:29.863Z,1.60
2019-02-07T14:39:42.271Z,2.30
2019-02-07T14:41:54.740Z,1.30
2019-02-07T14:44:04.454Z,1.83
2019-02-07T14:46:46.218Z,1.63
2019-02-07T14:48:50.647Z,1.77
2019-02-07T14:50:56.147Z,1.00
2019-02-07T14:53:02.069Z,2.10
2019-02-07T14:55:05.503Z,1.80
2019-02-07T14:57:10.088Z,1.33
2019-02-07T14:59:15.025Z,1.93
2019-02-07T15:01:19.784Z,1.47
2019-02-07T15:03:24.350Z,1.40
2019-02-07T15:05:31.406Z,1.23
2019-02-07T15:07:33.120Z,0.97
2019-02-07T15:09:37.512Z,1.60
2019-02-07T15:11:42.027Z,1.03
2019-02-07T15:13:46.558Z,1.33
2019-02-07T15:15:50.929Z,1.33
2019-02-07T15:17:55.377Z,1.63
2019-02-07T15:19:59.888Z,1.70
2019-02-07T15:22:04.369Z,1.30
2019-02-07T15:24:08.882Z,1.90
2019-02-07T15:26:14.593Z,3.20
2019-02-07T15:28:19.247Z,1.43
2019-02-07T15:30:23.733Z,1.80
2019-02-07T15:32:28.172Z,1.40
2019-02-07T15:34:32.550Z,2.13
2019-02-07T15:36:38.087Z,1.63
2019-02-07T15:38:42.556Z,1.60
2019-02-07T15:40:47.023Z,1.00
2019-02-07T15:42:51.459Z,0.87
2019-02-07T15:44:55.988Z,1.20
2019-02-07T15:47:00.404Z,1.30
2019-02-07T15:49:05.057Z,1.73
2019-02-07T15:51:09.694Z,1.53
2019-02-07T15:53:14.166Z,1.10
2019-02-07T15:55:18.747Z,2.13
2019-02-07T15:57:23.337Z,1.50
2019-02-07T15:59:32.050Z,2.13
2019-02-07T16:01:41.423Z,2.07
2019-02-07T16:04:21.619Z,1.87
2019-02-07T16:06:26.100Z,1.20
2019-02-07T16:08:30.814Z,1.07
2019-02-07T16:10:35.215Z,1.27
2019-02-07T16:12:39.673Z,1.03
2019-02-07T16:14:44.062Z,1.93
2019-02-07T16:16:48.469Z,2.50
2019-02-07T16:18:53.091Z,1.10
2019-02-07T16:20:57.558Z,1.20
2019-02-07T16:23:02.175Z,1.70
2019-02-07T16:25:07.582Z,1.57
2019-02-07T16:27:11.974Z,1.37
2019-02-07T16:29:16.369Z,1.63
2019-02-07T16:31:20.784Z,1.30
2019-02-07T16:33:25.271Z,1.20
2019-02-07T16:35:29.665Z,1.63
2019-02-07T16:37:34.071Z,2.30
2019-02-07T16:39:38.433Z,1.30
2019-02-07T16:41:42.850Z,1.07
2019-02-07T16:43:47.305Z,1.77
2019-02-07T16:45:51.714Z,1.60
2019-02-07T16:47:56.103Z,1.07
2019-02-07T16:50:00.473Z,1.27
2019-02-07T16:52:05.050Z,1.53
2019-02-07T16:54:09.577Z,1.93
2019-02-07T16:56:14.055Z,1.33
2019-02-07T16:58:18.413Z,1.07
2019-02-07T17:00:24.202Z,1.10
2019-02-07T17:02:28.600Z,1.00
2019-02-07T17:04:32.997Z,1.40
2019-02-07T17:06:37.419Z,1.23
2019-02-07T17:08:41.883Z,1.90
2019-02-07T17:10:46.353Z,0.93
2019-02-07T17:12:50.752Z,1.03
2019-02-07T17:14:55.137Z,1.07
2019-02-07T17:16:59.502Z,1.40
2019-02-07T17:19:03.939Z,2.50
2019-02-07T17:21:12.526Z,0.93
2019-02-07T17:23:12.805Z,2.20
2019-02-07T17:25:17.252Z,1.30
2019-02-07T17:27:21.639Z,1.90
2019-02-07T17:29:26.086Z,2.17
2019-02-07T17:31:30.456Z,2.00
2019-02-07T17:33:34.918Z,1.90
2019-02-07T17:35:39.429Z,1.70
2019-02-07T17:37:43.902Z,1.50
2019-02-07T17:39:48.306Z,1.83
2019-02-07T17:41:52.666Z,0.80
2019-02-07T17:43:57.069Z,1.13
2019-02-07T17:46:01.500Z,2.23
2019-02-07T17:48:05.988Z,0.80
2019-02-07T17:50:13.423Z,1.43
2019-02-07T17:52:17.869Z,1.90
2019-02-07T17:54:22.248Z,2.07
2019-02-07T17:56:26.594Z,1.47
2019-02-07T17:58:31.602Z,1.97
2019-02-07T18:00:44.026Z,1.57
2019-02-07T18:02:54.859Z,1.50
2019-02-07T18:04:59.265Z,0.90
2019-02-07T18:07:03.865Z,1.77
2019-02-07T18:09:09.670Z,2.30
2019-02-07T18:11:14.093Z,1.17
2019-02-07T18:13:18.493Z,1.30
2019-02-07T18:15:22.871Z,1.40
2019-02-07T18:17:27.246Z,0.93
2019-02-07T18:19:33.344Z,1.30
2019-02-07T18:21:38.283Z,1.03
2019-02-07T18:23:42.625Z,0.97
2019-02-07T18:25:46.962Z,0.80
2019-02-07T18:27:53.326Z,1.47
2019-02-07T18:29:57.725Z,1.17
2019-02-07T18:32:02.104Z,1.00
2019-02-07T18:34:06.824Z,1.60
2019-02-07T18:36:11.280Z,2.00
2019-02-07T18:38:15.610Z,0.80
2019-02-07T18:40:22.080Z,1.43
2019-02-07T18:42:26.463Z,1.37
2019-02-07T18:44:30.878Z,1.00
2019-02-07T18:46:35.323Z,1.73
2019-02-07T18:48:39.726Z,1.30
2019-02-07T18:50:44.152Z,0.83
2019-02-07T18:52:48.678Z,0.87
2019-02-07T18:54:52.998Z,1.10
2019-02-07T18:56:57.367Z,1.30
2019-02-07T18:59:01.779Z,1.83
2019-02-07T19:01:06.186Z,1.73
2019-02-07T19:03:10.571Z,1.13
2019-02-07T19:05:16.542Z,1.10
2019-02-07T19:07:20.884Z,1.43
2019-02-07T19:09:25.286Z,1.53
2019-02-07T19:11:29.727Z,1.00
2019-02-07T19:13:34.133Z,1.67
2019-02-07T19:15:41.248Z,0.80
2019-02-07T19:17:45.763Z,1.40
2019-02-07T19:19:50.148Z,2.30
2019-02-07T19:21:57.239Z,1.63
2019-02-07T19:23:58.958Z,1.70
2019-02-07T19:26:03.560Z,2.00
2019-02-07T19:28:08.355Z,1.87
2019-02-07T19:30:21.125Z,1.43
2019-02-07T19:32:25.534Z,2.00
2019-02-07T19:34:29.958Z,0.97
2019-02-07T19:36:34.426Z,2.93
2019-02-07T19:38:38.827Z,1.20
2019-02-07T19:40:43.297Z,1.33
2019-02-07T19:42:47.724Z,1.80
2019-02-07T19:44:52.101Z,1.33
2019-02-07T19:46:56.510Z,1.37
2019-02-07T19:49:00.845Z,2.30
2019-02-07T19:51:05.271Z,1.10
2019-02-07T19:53:09.679Z,1.30
2019-02-07T19:55:16.087Z,1.00
2019-02-07T19:57:20.449Z,1.13
2019-02-07T19:59:24.851Z,1.73
2019-02-07T20:01:29.249Z,0.93
2019-02-07T20:03:33.607Z,1.57
2019-02-07T20:05:38.088Z,0.80
2019-02-07T20:07:42.569Z,1.17
2019-02-07T20:09:46.951Z,1.10
2019-02-07T20:11:51.367Z,1.40
2019-02-07T20:13:55.828Z,0.90
2019-02-07T20:16:00.317Z,1.60
2019-02-07T20:18:05.322Z,0.90
2019-02-07T20:20:10.075Z,0.77
2019-02-07T20:22:20.162Z,1.10
2019-02-07T20:24:18.925Z,1.57
2019-02-07T20:26:23.349Z,0.93
2019-02-07T20:28:27.820Z,1.33
2019-02-07T20:30:34.171Z,2.07
2019-02-07T20:32:38.575Z,1.53
2019-02-07T20:34:43.022Z,1.33
2019-02-07T20:36:47.382Z,0.83
2019-02-07T20:38:51.830Z,1.63
2019-02-07T20:40:56.312Z,1.67
2019-02-07T20:43:00.694Z,1.50
2019-02-07T20:45:05.791Z,1.00
2019-02-07T20:47:10.216Z,1.23
2019-02-07T20:49:14.604Z,1.50
2019-02-07T20:51:19.084Z,1.17
2019-02-07T20:53:23.552Z,1.40
2019-02-07T20:55:28.063Z,1.60
2019-02-07T20:57:32.510Z,1.30
2019-02-07T20:59:36.862Z,1.43
2019-02-07T21:01:41.360Z,1.20
2019-02-07T21:03:45.870Z,1.43
2019-02-07T21:05:50.337Z,2.00
2019-02-07T21:07:59.862Z,1.00
2019-02-07T21:10:04.965Z,1.80
2019-02-07T21:12:09.350Z,1.67
2019-02-07T21:14:13.711Z,1.13
2019-02-07T21:16:18.100Z,1.57
2019-02-07T21:18:22.498Z,0.90
2019-02-07T21:20:27.954Z,1.30
2019-02-07T21:22:34.662Z,1.23
2019-02-07T21:24:36.754Z,1.90
2019-02-07T21:26:41.302Z,1.60
2019-02-07T21:28:45.786Z,1.87
2019-02-07T21:30:50.206Z,1.60
2019-02-07T21:32:55.139Z,1.47
2019-02-07T21:34:59.566Z,1.30
2019-02-07T21:37:04.027Z,1.07
2019-02-07T21:39:10.925Z,1.50
2019-02-07T21:41:15.446Z,1.10
2019-02-07T21:43:19.810Z,1.00
2019-02-07T21:45:24.317Z,1.27
2019-02-07T21:47:28.678Z,1.00
2019-02-07T21:49:33.075Z,0.80
2019-02-07T21:51:37.492Z,1.70
2019-02-07T21:53:41.910Z,1.30
2019-02-07T21:55:46.346Z,1.10
2019-02-07T21:57:50.758Z,1.00
2019-02-07T22:00:00.755Z,1.00
2019-02-07T22:01:59.663Z,1.27
2019-02-07T22:04:04.246Z,1.60
2019-02-07T22:06:08.689Z,1.00
2019-02-07T22:08:13.230Z,1.27
2019-02-07T22:10:17.760Z,1.60
2019-02-07T22:12:22.216Z,1.30
2019-02-07T22:14:26.637Z,1.33
2019-02-07T22:16:31.072Z,1.23
2019-02-07T22:18:35.438Z,1.10
2019-02-07T22:20:39.850Z,1.77
2019-02-07T22:22:49.092Z,1.23
2019-02-07T22:24:48.813Z,0.80
2019-02-07T22:26:53.163Z,1.67
2019-02-07T22:28:57.599Z,1.50
2019-02-07T22:31:02.087Z,1.50
2019-02-07T22:33:07.161Z,1.43
2019-02-07T22:35:11.598Z,1.50
2019-02-07T22:37:16.025Z,1.00
2019-02-07T22:39:20.374Z,1.57
2019-02-07T22:41:24.814Z,2.10
2019-02-07T22:43:29.225Z,1.47
2019-02-07T22:45:33.894Z,1.37
2019-02-07T22:47:38.365Z,1.47
2019-02-07T22:49:42.792Z,1.20
2019-02-07T22:51:47.323Z,1.50
2019-02-07T22:53:51.711Z,1.30
2019-02-07T22:55:56.085Z,1.00
2019-02-07T22:58:00.541Z,1.17
2019-02-07T23:00:09.986Z,1.33
2019-02-07T23:02:14.513Z,1.47
2019-02-07T23:04:19.591Z,0.80
2019-02-07T23:06:24.040Z,1.60
2019-02-07T23:08:28.498Z,1.77
2019-02-07T23:10:32.906Z,1.23
2019-02-07T23:12:37.321Z,1.03
2019-02-07T23:14:41.695Z,1.10
2019-02-07T23:16:46.221Z,1.70
2019-02-07T23:18:50.667Z,1.00
2019-02-07T23:20:55.005Z,1.37
2019-02-07T23:23:05.102Z,1.10
2019-02-07T23:25:04.069Z,1.50
2019-02-07T23:27:08.470Z,1.13
2019-02-07T23:29:12.868Z,2.30
2019-02-07T23:31:17.291Z,0.70
2019-02-07T23:33:21.742Z,1.27
2019-02-07T23:35:26.165Z,0.77
2019-02-07T23:37:30.540Z,1.30
2019-02-07T23:39:34.903Z,1.27
2019-02-07T23:41:39.314Z,1.77
2019-02-07T23:43:50.336Z,1.03
2019-02-07T23:45:48.315Z,1.00
2019-02-07T23:47:52.693Z,1.40
2019-02-07T23:49:57.110Z,1.40
2019-02-07T23:52:01.491Z,2.10
2019-02-07T23:54:06.011Z,1.50
2019-02-07T23:56:10.546Z,2.23
2019-02-07T23:58:14.973Z,1.77
